Baltic Frost — 9HA2868 — position and weather

sailwx.info

Track history (hours):
 
Tides and Currents Weather Stations Pressure Air Temp Water Temp Dewpoint Dewpoint Depression Visibility Wind Speed Wind Dir Waves Ship Positions

Baltic Frost

Last reported at 2014-Nov-24 07:28 UTC. Time now 2014-Nov-24 08:25 UTC.
Position N 57°41' E 011°52'.

Length 182 m; draft 7 m.

Type: Ship. MMSI: 256495000.

Date/timePositionNaut miles runAvg speedWind from/ knotsBaromVisibWave heightAir tempDewpointWater temp
2014-Nov-24 07:28N 57°41' E 011°52'0 0.0
2014-Nov-24 06:33N 57°41' E 011°52'0 0.0
2014-Nov-24 05:33N 57°41' E 011°52'0 0.0
2014-Nov-24 04:33N 57°41' E 011°52'0 0.0
2014-Nov-24 03:32N 57°41' E 011°52'0 0.0
2014-Nov-24 02:32N 57°41' E 011°52'0 0.0
2014-Nov-24 01:31N 57°41' E 011°52'0 0.0
2014-Nov-24 00:31N 57°41' E 011°52'0 0.0
2014-Nov-23 23:33N 57°41' E 011°52'0 0.0
2014-Nov-23 22:33N 57°41' E 011°52'0 0.0
2014-Nov-23 21:32N 57°41' E 011°52'0 0.0
2014-Nov-23 20:32N 57°41' E 011°52'0 0.0
2014-Nov-23 19:32N 57°41' E 011°52'0 0.3
2014-Nov-23 18:33N 57°41' E 011°52'9 8.8
2014-Nov-23 17:33N 57°35' E 011°40'2 2.3
2014-Nov-23 16:31N 57°33' E 011°38'0 0.0
2014-Nov-23 15:31N 57°33' E 011°38'0 0.0
2014-Nov-23 14:31N 57°33' E 011°38'0 0.0
2014-Nov-23 13:33N 57°33' E 011°38'0 0.0
2014-Nov-23 12:33N 57°33' E 011°38'0 0.0
2014-Nov-23 11:32N 57°33' E 011°38'0 0.0
2014-Nov-23 10:32N 57°33' E 011°38'0 0.0
2014-Nov-23 09:28N 57°33' E 011°38'0 0.0
2014-Nov-23 08:31N 57°33' E 011°38'0 0.0
2014-Nov-23 07:31N 57°33' E 011°38'0 0.0
2014-Nov-23 06:33N 57°33' E 011°38'0 0.0
2014-Nov-23 05:33N 57°33' E 011°38'0 0.0
2014-Nov-23 04:29N 57°33' E 011°38'0 0.0
2014-Nov-23 03:32N 57°33' E 011°38'0 0.0
2014-Nov-23 02:31N 57°33' E 011°38'0 0.0
2014-Nov-23 01:28N 57°33' E 011°38'0 0.0
2014-Nov-23 00:28N 57°33' E 011°38'0 0.0
2014-Nov-22 23:33N 57°33' E 011°38'0 0.0
2014-Nov-22 22:33N 57°33' E 011°38'0 0.0
2014-Nov-22 21:32N 57°33' E 011°38'0 0.0
2014-Nov-22 20:29N 57°33' E 011°38'0 0.0
2014-Nov-22 19:31N 57°33' E 011°38'0 0.0
2014-Nov-22 18:31N 57°33' E 011°38'0 0.0
2014-Nov-22 17:24N 57°33' E 011°38'0 0.0
2014-Nov-22 16:33N 57°33' E 011°38'0 0.0
2014-Nov-22 15:33N 57°33' E 011°38'0 0.0
2014-Nov-22 14:32N 57°33' E 011°38'0 0.0
2014-Nov-22 13:32N 57°33' E 011°38'0 0.0
2014-Nov-22 12:31N 57°33' E 011°38'0 0.0
2014-Nov-22 11:31N 57°33' E 011°38'0 0.0
2014-Nov-22 10:34N 57°33' E 011°38'0 0.0
2014-Nov-22 09:33N 57°33' E 011°38'0 0.0
2014-Nov-22 08:33N 57°33' E 011°38'0 0.0
2014-Nov-22 07:32N 57°33' E 011°38'0 0.0
2014-Nov-22 06:32N 57°33' E 011°38'0 0.0
2014-Nov-22 05:28N 57°33' E 011°38'0 0.0
2014-Nov-22 04:31N 57°33' E 011°38'0 0.0
2014-Nov-22 03:33N 57°33' E 011°38'0 0.0
2014-Nov-22 02:33N 57°33' E 011°38'0 0.0
2014-Nov-22 01:33N 57°33' E 011°38'0 0.0
2014-Nov-22 00:32N 57°33' E 011°38'0 0.0
2014-Nov-21 23:32N 57°33' E 011°38'0 0.0
2014-Nov-21 22:31N 57°33' E 011°38'0 0.0
2014-Nov-21 21:33N 57°33' E 011°38'4 3.6
2014-Nov-21 20:33N 57°35' E 011°32'1212.1
2014-Nov-21 19:33N 57°41' E 011°13'1111.0
2014-Nov-21 18:33N 57°46' E 010°55'1010.2
2014-Nov-21 17:33N 57°48' E 010°36'279 9.5
2014-Nov-20 12:21N 54°21' E 005°02'4 4.2
2014-Nov-20 11:24N 54°17' E 005°05'1010.1
2014-Nov-20 10:27N 54°09' E 004°57'1011.2
2014-Nov-20 09:33N 54°00' E 004°47'16111.2
2014-Nov-19 19:09N 51°42' E 002°32'6 9.9
2014-Nov-19 18:33N 51°37' E 002°26'12 9.7
2014-Nov-19 17:21N 51°28' E 002°13'810.2
2014-Nov-19 16:34N 51°21' E 002°09'1010.1
2014-Nov-19 15:33N 51°12' E 002°01'1010.3
2014-Nov-19 14:33N 51°07' E 001°47'8 8.5
2014-Nov-19 13:34N 51°03' E 001°59'1413.8
2014-Nov-19 12:33N 51°04' E 002°21'1 0.2
2014-Nov-19 09:22N 51°03' E 002°21'0 0.0
2014-Nov-19 08:22N 51°03' E 002°21'0 0.0
2014-Nov-19 07:24N 51°03' E 002°21'0 0.0
2014-Nov-19 06:27N 51°03' E 002°21'0 0.0
2014-Nov-19 05:27N 51°03' E 002°21'0 0.0
2014-Nov-19 04:32N 51°03' E 002°21'0 0.0
2014-Nov-19 03:05N 51°03' E 002°21'0 0.0
2014-Nov-19 02:16N 51°03' E 002°21'0 0.0
2014-Nov-19 01:31N 51°03' E 002°21'0 0.0
2014-Nov-18 18:31N 51°03' E 002°21'0 0.0
2014-Nov-18 17:33N 51°03' E 002°21'0 0.0
2014-Nov-18 08:17N 51°03' E 002°21'0 0.0
2014-Nov-18 05:28N 51°03' E 002°21'0 0.0
2014-Nov-18 04:31N 51°03' E 002°21'0 0.0
2014-Nov-18 03:09N 51°03' E 002°21'0 0.0
2014-Nov-18 01:33N 51°03' E 002°21'3 1.2
2014-Nov-17 23:11N 51°04' E 002°16'6 8.7
2014-Nov-17 22:30N 51°03' E 002°07'1212.5
2014-Nov-17 21:34N 51°03' E 001°48'1 0.7
2014-Nov-17 20:34N 51°03' E 001°49'1 1.2
2014-Nov-17 19:33N 51°04' E 001°48'2 2.0
2014-Nov-17 18:34N 51°04' E 001°45'9 9.4
2014-Nov-17 17:34N 51°14' E 001°47'1414.0
2014-Nov-17 16:33N 51°26' E 001°59'1414.4
2014-Nov-17 15:33N 51°37' E 002°14'46612.5
2014-Nov-16 02:19N 57°50' E 010°16'1215.1
2014-Nov-16 01:33N 57°48' E 010°38'1413.6
2014-Nov-16 00:33N 57°41' E 010°59'1414.1
2014-Nov-15 23:33N 57°32' E 011°18'1413.6
2014-Nov-15 22:33N 57°20' E 011°31'1514.5
2014-Nov-15 21:31N 57°06' E 011°40'1614.4
2014-Nov-15 20:23N 56°50' E 011°50'13811.4
2014-Nov-15 08:15N 54°33' E 011°20'1214.4
2014-Nov-15 07:24N 54°29' E 011°39'1213.8
2014-Nov-15 06:33N 54°26' E 011°59'1211.6
2014-Nov-15 05:33N 54°33' E 012°14'6612.7
2014-Nov-15 00:23N 55°02' E 013°56'1112.9
2014-Nov-14 23:30N 55°10' E 014°11'1513.6
2014-Nov-14 22:25N 55°21' E 014°27'1213.4
2014-Nov-14 21:33N 55°29' E 014°43'1413.8
2014-Nov-14 20:33N 55°35' E 015°04'  
Track history (hours):
 
Tides and Currents Weather Stations Pressure Air Temp Water Temp Dewpoint Dewpoint Depression Visibility Wind Speed Wind Dir Waves Ship Positions

Baltic Frost

Last reported at 2014-Nov-24 07:28 UTC. Time now 2014-Nov-24 08:25 UTC.
Position N 57°41' E 011°52'.

Length 182 m; draft 7 m.

Type: Ship. MMSI: 256495000.

Date/timePositionNaut miles runAvg speedWind from/ knotsBaromVisibWave heightAir tempDewpointWater temp
2014-Nov-24 07:28N 57°41' E 011°52'0 0.0
2014-Nov-24 06:33N 57°41' E 011°52'0 0.0
2014-Nov-24 05:33N 57°41' E 011°52'0 0.0
2014-Nov-24 04:33N 57°41' E 011°52'0 0.0
2014-Nov-24 03:32N 57°41' E 011°52'0 0.0
2014-Nov-24 02:32N 57°41' E 011°52'0 0.0
2014-Nov-24 01:31N 57°41' E 011°52'0 0.0
2014-Nov-24 00:31N 57°41' E 011°52'0 0.0
2014-Nov-23 23:33N 57°41' E 011°52'0 0.0
2014-Nov-23 22:33N 57°41' E 011°52'0 0.0
2014-Nov-23 21:32N 57°41' E 011°52'0 0.0
2014-Nov-23 20:32N 57°41' E 011°52'0 0.0
2014-Nov-23 19:32N 57°41' E 011°52'0 0.3
2014-Nov-23 18:33N 57°41' E 011°52'9 8.8
2014-Nov-23 17:33N 57°35' E 011°40'2 2.3
2014-Nov-23 16:31N 57°33' E 011°38'0 0.0
2014-Nov-23 15:31N 57°33' E 011°38'0 0.0
2014-Nov-23 14:31N 57°33' E 011°38'0 0.0
2014-Nov-23 13:33N 57°33' E 011°38'0 0.0
2014-Nov-23 12:33N 57°33' E 011°38'0 0.0
2014-Nov-23 11:32N 57°33' E 011°38'0 0.0
2014-Nov-23 10:32N 57°33' E 011°38'0 0.0
2014-Nov-23 09:28N 57°33' E 011°38'0 0.0
2014-Nov-23 08:31N 57°33' E 011°38'0 0.0
2014-Nov-23 07:31N 57°33' E 011°38'0 0.0
2014-Nov-23 06:33N 57°33' E 011°38'0 0.0
2014-Nov-23 05:33N 57°33' E 011°38'0 0.0
2014-Nov-23 04:29N 57°33' E 011°38'0 0.0
2014-Nov-23 03:32N 57°33' E 011°38'0 0.0
2014-Nov-23 02:31N 57°33' E 011°38'0 0.0
2014-Nov-23 01:28N 57°33' E 011°38'0 0.0
2014-Nov-23 00:28N 57°33' E 011°38'0 0.0
2014-Nov-22 23:33N 57°33' E 011°38'0 0.0
2014-Nov-22 22:33N 57°33' E 011°38'0 0.0
2014-Nov-22 21:32N 57°33' E 011°38'0 0.0
2014-Nov-22 20:29N 57°33' E 011°38'0 0.0
2014-Nov-22 19:31N 57°33' E 011°38'0 0.0
2014-Nov-22 18:31N 57°33' E 011°38'0 0.0
2014-Nov-22 17:24N 57°33' E 011°38'0 0.0
2014-Nov-22 16:33N 57°33' E 011°38'0 0.0
2014-Nov-22 15:33N 57°33' E 011°38'0 0.0
2014-Nov-22 14:32N 57°33' E 011°38'0 0.0
2014-Nov-22 13:32N 57°33' E 011°38'0 0.0
2014-Nov-22 12:31N 57°33' E 011°38'0 0.0
2014-Nov-22 11:31N 57°33' E 011°38'0 0.0
2014-Nov-22 10:34N 57°33' E 011°38'0 0.0
2014-Nov-22 09:33N 57°33' E 011°38'0 0.0
2014-Nov-22 08:33N 57°33' E 011°38'0 0.0
2014-Nov-22 07:32N 57°33' E 011°38'0 0.0
2014-Nov-22 06:32N 57°33' E 011°38'0 0.0
2014-Nov-22 05:28N 57°33' E 011°38'0 0.0
2014-Nov-22 04:31N 57°33' E 011°38'0 0.0
2014-Nov-22 03:33N 57°33' E 011°38'0 0.0
2014-Nov-22 02:33N 57°33' E 011°38'0 0.0
2014-Nov-22 01:33N 57°33' E 011°38'0 0.0
2014-Nov-22 00:32N 57°33' E 011°38'0 0.0
2014-Nov-21 23:32N 57°33' E 011°38'0 0.0
2014-Nov-21 22:31N 57°33' E 011°38'0 0.0
2014-Nov-21 21:33N 57°33' E 011°38'4 3.6
2014-Nov-21 20:33N 57°35' E 011°32'1212.1
2014-Nov-21 19:33N 57°41' E 011°13'1111.0
2014-Nov-21 18:33N 57°46' E 010°55'1010.2
2014-Nov-21 17:33N 57°48' E 010°36'279 9.5
2014-Nov-20 12:21N 54°21' E 005°02'4 4.2
2014-Nov-20 11:24N 54°17' E 005°05'1010.1
2014-Nov-20 10:27N 54°09' E 004°57'1011.2
2014-Nov-20 09:33N 54°00' E 004°47'16111.2
2014-Nov-19 19:09N 51°42' E 002°32'6 9.9
2014-Nov-19 18:33N 51°37' E 002°26'12 9.7
2014-Nov-19 17:21N 51°28' E 002°13'810.2
2014-Nov-19 16:34N 51°21' E 002°09'1010.1
2014-Nov-19 15:33N 51°12' E 002°01'1010.3
2014-Nov-19 14:33N 51°07' E 001°47'8 8.5
2014-Nov-19 13:34N 51°03' E 001°59'1413.8
2014-Nov-19 12:33N 51°04' E 002°21'1 0.2
2014-Nov-19 09:22N 51°03' E 002°21'0 0.0
2014-Nov-19 08:22N 51°03' E 002°21'0 0.0
2014-Nov-19 07:24N 51°03' E 002°21'0 0.0
2014-Nov-19 06:27N 51°03' E 002°21'0 0.0
2014-Nov-19 05:27N 51°03' E 002°21'0 0.0
2014-Nov-19 04:32N 51°03' E 002°21'0 0.0
2014-Nov-19 03:05N 51°03' E 002°21'0 0.0
2014-Nov-19 02:16N 51°03' E 002°21'0 0.0
2014-Nov-19 01:31N 51°03' E 002°21'0 0.0
2014-Nov-18 18:31N 51°03' E 002°21'0 0.0
2014-Nov-18 17:33N 51°03' E 002°21'0 0.0
2014-Nov-18 08:17N 51°03' E 002°21'0 0.0
2014-Nov-18 05:28N 51°03' E 002°21'0 0.0
2014-Nov-18 04:31N 51°03' E 002°21'0 0.0
2014-Nov-18 03:09N 51°03' E 002°21'0 0.0
2014-Nov-18 01:33N 51°03' E 002°21'3 1.2
2014-Nov-17 23:11N 51°04' E 002°16'6 8.7
2014-Nov-17 22:30N 51°03' E 002°07'1212.5
2014-Nov-17 21:34N 51°03' E 001°48'1 0.7
2014-Nov-17 20:34N 51°03' E 001°49'1 1.2
2014-Nov-17 19:33N 51°04' E 001°48'2 2.0
2014-Nov-17 18:34N 51°04' E 001°45'9 9.4
2014-Nov-17 17:34N 51°14' E 001°47'1414.0
2014-Nov-17 16:33N 51°26' E 001°59'1414.4
2014-Nov-17 15:33N 51°37' E 002°14'46612.5
2014-Nov-16 02:19N 57°50' E 010°16'1215.1
2014-Nov-16 01:33N 57°48' E 010°38'1413.6
2014-Nov-16 00:33N 57°41' E 010°59'1414.1
2014-Nov-15 23:33N 57°32' E 011°18'1413.6
2014-Nov-15 22:33N 57°20' E 011°31'1514.5
2014-Nov-15 21:31N 57°06' E 011°40'1614.4
2014-Nov-15 20:23N 56°50' E 011°50'13811.4
2014-Nov-15 08:15N 54°33' E 011°20'1214.4
2014-Nov-15 07:24N 54°29' E 011°39'1213.8
2014-Nov-15 06:33N 54°26' E 011°59'1211.6
2014-Nov-15 05:33N 54°33' E 012°14'6612.7
2014-Nov-15 00:23N 55°02' E 013°56'1112.9
2014-Nov-14 23:30N 55°10' E 014°11'1513.6
2014-Nov-14 22:25N 55°21' E 014°27'1213.4
2014-Nov-14 21:33N 55°29' E 014°43'1413.8
2014-Nov-14 20:33N 55°35' E 015°04'  

Dump ship's entire track history